Dike, Texas
Current Conditions -  °F | °C
As of 3:15 AM on Wednesday 22 Oct 2014 (Local Time) from KSLR Reporting Station
Haze Haze  
Wind Chill: 15°   Ceiling: Unl
Heat Index: 15°   Visibility: 3mi
Dew Point: 15°   Wind: 5mph
Humidity: 98%   Direction: 130°SE
Pressure: 30.1"   Gusts: NA
Location:  33.24°N, 95.48°W
Report Text: KSLR 220815Z AUTO 13004KT 3SM BR CLR 15/15 A3010 RMK AO2 T01520149
Loading
Personal Weather Stations






























Interactive Weather Map
Tropical Storm Tracking
New forecast layout! Learn more

10-Day Weather Forecast

Advertisements
Track Severe Weather on mobile